KRAS

Mustang Beach Airport

Port Aransas, Texas, USA
METAR KRAS 190715Z AUTO 09003KT 7SM CLR 17/17 A2991 RMK AO2 T01700167
Observed Flight Rules
Dec-19 @ 07:15 UTC (28 minutes ago) Visual Flight Rules
Wind Visibility Clouds
90° at 3 knots 7 miles
  • Clear skies
Temperatures Readings
Current 17°C / 63°F
Dewpoint 17°C / 63°F
Humidity 100%
Altimeter 29.91" Hg
Pressure 1013 hPa
Elevation 2
METAR KRAS 190715Z AUTO 09003KT 7SM CLR 17/17 A2991 RMK AO2 T01700167
Observed Flight Rules
Dec-19 @ 07:15 UTC
(28 minutes ago)
VFR
Wind Visibility
90° at 3 knots 7 miles
Clouds
  • Clear skies
Temperature Dewpoint
17°C / 63°F 17°C / 63°F
Humidity Altimeter Pressure
100% 29.91" Hg 1013 hPa